createdAt,value
2024-02-10T00:00:35.054Z,2.55
2024-02-10T00:03:04.781Z,2.13
2024-02-10T00:05:33.540Z,1.70
2024-02-10T00:08:02.353Z,2.45
2024-02-10T00:10:32.092Z,2.75
2024-02-10T00:13:02.565Z,1.95
2024-02-10T00:15:31.341Z,2.35
2024-02-10T00:17:59.921Z,2.63
2024-02-10T00:20:28.600Z,2.38
2024-02-10T00:22:57.233Z,2.20
2024-02-10T00:25:26.428Z,1.83
2024-02-10T00:27:56.456Z,1.95
2024-02-10T00:30:25.588Z,2.30
2024-02-10T00:32:54.379Z,2.03
2024-02-10T00:35:25.029Z,1.70
2024-02-10T00:37:55.758Z,1.83
2024-02-10T00:40:25.252Z,1.88
2024-02-10T00:42:56.999Z,2.38
2024-02-10T00:45:25.626Z,1.80
2024-02-10T00:47:55.279Z,1.90
2024-02-10T00:50:23.887Z,1.70
2024-02-10T00:52:52.483Z,1.98
2024-02-10T00:55:25.208Z,1.27
2024-02-10T00:57:53.920Z,2.33
2024-02-10T01:00:24.398Z,2.60
2024-02-10T01:02:53.507Z,1.75
2024-02-10T01:05:22.113Z,3.10
2024-02-10T01:07:52.223Z,4.35
2024-02-10T01:10:22.609Z,2.75
2024-02-10T01:12:51.195Z,2.30
2024-02-10T01:15:20.092Z,2.78
2024-02-10T01:17:48.738Z,2.80
2024-02-10T01:20:19.488Z,3.15
2024-02-10T01:22:48.138Z,3.67
2024-02-10T01:25:16.812Z,4.22
2024-02-10T01:27:47.304Z,3.45
2024-02-10T01:30:16.044Z,4.05
2024-02-10T01:32:44.740Z,3.00
2024-02-10T01:35:13.329Z,2.38
2024-02-10T01:37:41.966Z,3.47
2024-02-10T01:40:13.575Z,3.70
2024-02-10T01:42:42.290Z,4.35
2024-02-10T01:45:16.097Z,4.20
2024-02-10T01:47:48.886Z,2.92
2024-02-10T01:50:18.190Z,2.80
2024-02-10T01:52:47.776Z,2.80
2024-02-10T01:55:16.485Z,2.97
2024-02-10T01:57:51.891Z,2.40
2024-02-10T02:00:22.811Z,2.28
2024-02-10T02:02:52.334Z,3.47
2024-02-10T02:05:21.197Z,3.45
2024-02-10T02:07:50.888Z,2.75
2024-02-10T02:10:23.634Z,2.65
2024-02-10T02:12:53.134Z,2.55
2024-02-10T02:15:22.800Z,2.30
2024-02-10T02:17:51.474Z,2.08
2024-02-10T02:20:20.483Z,1.92
2024-02-10T02:22:57.283Z,2.47
2024-02-10T02:25:25.943Z,2.95
2024-02-10T02:27:54.524Z,1.92
2024-02-10T02:30:23.047Z,1.65
2024-02-10T02:32:53.089Z,2.63
2024-02-10T02:35:21.619Z,2.00
2024-02-10T02:37:50.080Z,1.45
2024-02-10T02:40:19.155Z,1.85
2024-02-10T02:42:48.631Z,2.30
2024-02-10T02:45:17.210Z,1.92
2024-02-10T02:47:45.855Z,2.20
2024-02-10T02:50:17.401Z,1.65
2024-02-10T02:52:46.788Z,1.83
2024-02-10T02:55:15.647Z,1.73
2024-02-10T02:57:44.844Z,1.75
2024-02-10T03:00:14.206Z,1.88
2024-02-10T03:02:44.499Z,1.92
2024-02-10T03:05:14.312Z,1.45
2024-02-10T03:07:48.290Z,1.60
2024-02-10T03:10:18.182Z,1.55
2024-02-10T03:12:49.068Z,1.27
2024-02-10T03:15:18.459Z,1.38
2024-02-10T03:17:52.005Z,1.40
2024-02-10T03:23:05.228Z,1.00
2024-02-10T03:25:33.904Z,1.35
2024-02-10T03:28:06.052Z,1.27
2024-02-10T03:30:34.655Z,1.70
2024-02-10T03:33:03.773Z,1.95
2024-02-10T03:35:35.137Z,1.98
2024-02-10T03:38:03.838Z,1.38
2024-02-10T03:40:32.555Z,1.25
2024-02-10T03:43:01.231Z,2.25
2024-02-10T03:45:36.161Z,1.98
2024-02-10T03:48:06.697Z,2.35
2024-02-10T03:50:35.913Z,2.08
2024-02-10T03:53:04.558Z,2.58
2024-02-10T03:55:33.186Z,2.92
2024-02-10T03:58:01.599Z,1.90
2024-02-10T04:00:31.014Z,2.85
2024-02-10T04:02:59.637Z,2.00
2024-02-10T04:05:35.768Z,1.55
2024-02-10T04:08:05.290Z,2.83
2024-02-10T04:10:33.972Z,2.20
2024-02-10T04:13:05.043Z,2.75
2024-02-10T04:15:34.384Z,2.70
2024-02-10T04:18:04.422Z,2.85
2024-02-10T04:20:33.033Z,2.20
2024-02-10T04:23:02.105Z,1.35
2024-02-10T04:25:33.863Z,1.73
2024-02-10T04:28:05.084Z,1.23
2024-02-10T04:30:33.819Z,2.03
2024-02-10T04:33:02.676Z,3.60
2024-02-10T04:35:31.444Z,1.60
2024-02-10T04:38:03.547Z,1.60
2024-02-10T04:40:32.366Z,2.03
2024-02-10T04:43:01.063Z,1.63
2024-02-10T04:45:34.204Z,1.73
2024-02-10T04:48:07.057Z,2.25
2024-02-10T04:50:35.731Z,1.48
2024-02-10T04:53:08.085Z,2.35
2024-02-10T04:55:39.472Z,2.17
2024-02-10T04:58:07.985Z,1.25
2024-02-10T05:00:36.533Z,1.38
2024-02-10T05:03:05.631Z,1.20
2024-02-10T05:05:35.032Z,2.05
2024-02-10T05:08:03.250Z,2.20
2024-02-10T05:10:31.947Z,1.20
2024-02-10T05:13:00.527Z,1.48
2024-02-10T05:15:29.223Z,2.67
2024-02-10T05:17:57.931Z,1.27
2024-02-10T05:20:29.235Z,2.35
2024-02-10T05:23:02.451Z,2.33
2024-02-10T05:25:37.815Z,1.88
2024-02-10T05:28:08.776Z,1.45
2024-02-10T05:30:37.652Z,2.03
2024-02-10T05:33:07.283Z,2.10
2024-02-10T05:35:36.459Z,1.50
2024-02-10T05:38:08.563Z,1.95
2024-02-10T05:40:37.239Z,1.80
2024-02-10T05:43:07.787Z,1.63
2024-02-10T05:45:37.062Z,1.63
2024-02-10T05:48:06.036Z,2.13
2024-02-10T05:50:35.258Z,1.88
2024-02-10T05:53:03.962Z,2.78
2024-02-10T05:55:32.732Z,1.85
2024-02-10T05:58:06.478Z,2.03
2024-02-10T06:00:35.793Z,1.23
2024-02-10T06:03:06.715Z,1.65
2024-02-10T06:05:35.508Z,1.30
2024-02-10T06:08:05.396Z,1.23
2024-02-10T06:10:34.225Z,1.85
2024-02-10T06:13:02.854Z,2.08
2024-02-10T06:15:31.799Z,2.05
2024-02-10T06:18:02.781Z,1.48
2024-02-10T06:20:31.428Z,1.65
2024-02-10T06:23:01.183Z,2.10
2024-02-10T06:25:30.005Z,1.60
2024-02-10T06:28:01.972Z,1.35
2024-02-10T06:30:35.674Z,1.73
2024-02-10T06:33:07.367Z,1.90
2024-02-10T06:35:38.237Z,1.30
2024-02-10T06:38:09.474Z,2.35
2024-02-10T06:40:40.132Z,1.88
2024-02-10T06:43:10.715Z,1.67
2024-02-10T06:45:39.284Z,1.30
2024-02-10T06:48:10.688Z,1.52
2024-02-10T06:50:39.864Z,1.45
2024-02-10T06:53:09.489Z,1.23
2024-02-10T06:55:39.168Z,2.20
2024-02-10T06:58:07.813Z,1.70
2024-02-10T07:00:40.638Z,1.30
2024-02-10T07:03:09.392Z,1.80
2024-02-10T07:05:39.837Z,2.15
2024-02-10T07:08:08.867Z,1.67
2024-02-10T07:10:37.513Z,1.67
2024-02-10T07:13:07.112Z,1.48
2024-02-10T07:15:35.660Z,1.88
2024-02-10T07:18:05.516Z,2.30
2024-02-10T07:20:34.709Z,1.80
2024-02-10T07:23:06.971Z,1.52
2024-02-10T07:25:41.144Z,1.63
2024-02-10T07:28:11.411Z,2.08
2024-02-10T07:30:40.057Z,1.38
2024-02-10T07:33:12.667Z,1.40
2024-02-10T07:35:42.576Z,1.60
2024-02-10T07:38:11.717Z,1.77
2024-02-10T07:40:41.056Z,1.27
2024-02-10T07:43:15.259Z,1.30
2024-02-10T07:45:46.669Z,0.90
2024-02-10T07:48:15.595Z,1.02
2024-02-10T07:50:44.581Z,2.22
2024-02-10T07:53:15.979Z,1.55
2024-02-10T07:55:47.275Z,2.13
2024-02-10T07:58:19.301Z,1.42
2024-02-10T08:00:49.419Z,0.85
2024-02-10T08:03:18.095Z,1.40
2024-02-10T08:05:54.111Z,1.38
2024-02-10T08:08:26.302Z,1.67
2024-02-10T08:10:55.498Z,1.70
2024-02-10T08:13:27.057Z,1.45
2024-02-10T08:16:01.361Z,1.48
2024-02-10T08:18:31.871Z,1.77
2024-02-10T08:21:01.031Z,2.53
2024-02-10T08:23:29.877Z,1.58
2024-02-10T08:26:01.180Z,1.48
2024-02-10T08:28:31.570Z,1.70
2024-02-10T08:31:01.871Z,1.80
2024-02-10T08:33:33.117Z,2.15
2024-02-10T08:36:02.646Z,1.95
2024-02-10T08:38:31.442Z,1.98
2024-02-10T08:40:59.946Z,3.78
2024-02-10T08:43:28.542Z,1.73
2024-02-10T08:45:57.208Z,1.50
2024-02-10T08:48:25.973Z,1.30
2024-02-10T08:50:56.089Z,1.40
2024-02-10T08:53:25.987Z,2.22
2024-02-10T08:55:54.648Z,1.25
2024-02-10T08:58:25.381Z,1.63
2024-02-10T09:00:53.877Z,1.60
2024-02-10T09:03:22.481Z,1.88
2024-02-10T09:05:51.125Z,1.40
2024-02-10T09:08:19.667Z,1.40
2024-02-10T09:10:48.296Z,1.92
2024-02-10T09:13:16.978Z,1.88
2024-02-10T09:15:45.610Z,1.67
2024-02-10T09:18:15.044Z,1.17
2024-02-10T09:20:43.690Z,2.30
2024-02-10T09:23:12.339Z,1.58
2024-02-10T09:25:41.214Z,1.20
2024-02-10T09:28:09.783Z,1.70
2024-02-10T09:30:38.375Z,1.70
2024-02-10T09:33:10.467Z,1.58
2024-02-10T09:35:42.910Z,1.00
2024-02-10T09:38:15.408Z,2.03
2024-02-10T09:40:45.337Z,1.77
2024-02-10T09:43:17.139Z,1.17
2024-02-10T09:45:48.279Z,2.05
2024-02-10T09:48:21.728Z,1.25
2024-02-10T09:53:18.961Z,1.23
2024-02-10T09:55:48.594Z,1.20
2024-02-10T09:58:19.311Z,1.02
2024-02-10T10:00:50.180Z,0.90
2024-02-10T10:03:19.396Z,2.13
2024-02-10T10:05:49.927Z,0.82
2024-02-10T10:08:24.406Z,1.13
2024-02-10T10:10:53.678Z,0.82
2024-02-10T10:13:22.272Z,1.30
2024-02-10T10:15:51.838Z,2.42
2024-02-10T10:18:22.255Z,1.98
2024-02-10T10:20:52.145Z,1.33
2024-02-10T10:23:20.942Z,1.90
2024-02-10T10:25:50.071Z,1.10
2024-02-10T10:28:20.196Z,2.25
2024-02-10T10:30:50.238Z,1.30
2024-02-10T10:33:23.872Z,2.25
2024-02-10T10:35:52.620Z,1.60
2024-02-10T10:38:24.822Z,1.02
2024-02-10T10:40:54.876Z,1.58
2024-02-10T10:43:25.087Z,1.83
2024-02-10T10:45:54.064Z,1.92
2024-02-10T10:48:22.793Z,1.45
2024-02-10T10:50:58.456Z,1.30
2024-02-10T10:53:33.372Z,1.13
2024-02-10T10:56:06.076Z,1.38
2024-02-10T10:58:49.454Z,1.25
2024-02-10T11:01:19.256Z,0.85
2024-02-10T11:03:47.871Z,1.25
2024-02-10T11:06:17.132Z,1.20
2024-02-10T11:08:47.761Z,2.03
2024-02-10T11:11:16.998Z,1.33
2024-02-10T11:13:45.708Z,1.60
2024-02-10T11:16:15.961Z,0.80
2024-02-10T11:18:47.328Z,0.85
2024-02-10T11:21:23.958Z,1.50
2024-02-10T11:24:02.395Z,1.10
2024-02-10T11:26:32.166Z,2.28
2024-02-10T11:29:08.740Z,1.40
2024-02-10T11:31:45.079Z,1.02
2024-02-10T11:34:21.690Z,1.20
2024-02-10T11:36:54.383Z,1.30
2024-02-10T11:39:26.984Z,2.00
2024-02-10T11:42:00.605Z,1.35
2024-02-10T11:44:31.782Z,1.17
2024-02-10T11:47:02.341Z,0.95
2024-02-10T11:49:31.250Z,1.73
2024-02-10T11:52:00.074Z,1.20
2024-02-10T11:54:30.672Z,1.10
2024-02-10T11:57:03.075Z,1.15
2024-02-10T11:59:35.161Z,1.30
2024-02-10T12:02:04.567Z,1.08
2024-02-10T12:04:35.161Z,1.15
2024-02-10T12:07:04.082Z,1.08
2024-02-10T12:09:33.316Z,0.88
2024-02-10T12:12:02.588Z,1.23
2024-02-10T12:14:32.474Z,0.60
2024-02-10T12:17:09.137Z,0.98
2024-02-10T12:19:44.610Z,1.02
2024-02-10T12:22:13.260Z,1.10
2024-02-10T12:24:42.789Z,2.33
2024-02-10T12:27:11.697Z,1.17
2024-02-10T12:29:42.740Z,1.70
2024-02-10T12:32:12.458Z,1.15
2024-02-10T12:34:41.510Z,1.58
2024-02-10T12:37:10.784Z,1.75
2024-02-10T12:39:39.782Z,1.15
2024-02-10T12:42:11.082Z,2.97
2024-02-10T12:44:40.711Z,1.73
2024-02-10T12:47:12.342Z,1.58
2024-02-10T12:49:42.419Z,1.30
2024-02-10T12:52:11.084Z,1.02
2024-02-10T12:54:39.668Z,0.70
2024-02-10T12:57:08.526Z,1.23
2024-02-10T12:59:38.879Z,2.00
2024-02-10T13:02:11.082Z,1.38
2024-02-10T13:04:39.905Z,1.75
2024-02-10T13:07:08.494Z,1.70
2024-02-10T13:09:37.093Z,1.20
2024-02-10T13:12:06.021Z,1.67
2024-02-10T13:14:34.607Z,1.50
2024-02-10T13:17:05.153Z,1.13
2024-02-10T13:19:35.634Z,0.75
2024-02-10T13:22:04.312Z,0.80
2024-02-10T13:24:33.817Z,1.20
2024-02-10T13:27:02.456Z,1.48
2024-02-10T13:29:32.207Z,1.30
2024-02-10T13:32:00.846Z,1.85
2024-02-10T13:34:39.881Z,1.15
2024-02-10T13:37:18.553Z,2.83
2024-02-10T13:40:05.377Z,1.33
2024-02-10T13:42:51.994Z,1.00
2024-02-10T13:45:39.321Z,1.77
2024-02-10T13:48:26.973Z,1.50
2024-02-10T13:51:13.998Z,1.13
2024-02-10T13:54:00.624Z,0.73
2024-02-10T13:56:47.369Z,0.68
2024-02-10T13:59:19.585Z,0.63
2024-02-10T14:02:06.553Z,0.70
2024-02-10T14:04:50.700Z,1.80
2024-02-10T14:07:33.473Z,1.42
2024-02-10T14:10:23.804Z,0.85
2024-02-10T14:13:15.870Z,1.30
2024-02-10T14:15:55.664Z,1.02
2024-02-10T14:18:28.050Z,0.77
2024-02-10T14:21:15.303Z,0.98
2024-02-10T14:23:46.388Z,0.75
2024-02-10T14:26:16.976Z,1.52
2024-02-10T14:28:52.434Z,0.98
2024-02-10T14:31:24.907Z,0.68
2024-02-10T14:33:55.454Z,0.77
2024-02-10T14:36:41.234Z,1.10
2024-02-10T14:39:16.182Z,1.27
2024-02-10T14:41:51.031Z,1.70
2024-02-10T14:44:19.706Z,1.38
2024-02-10T14:46:51.432Z,1.40
2024-02-10T14:49:24.351Z,0.75
2024-02-10T14:51:54.130Z,1.98
2024-02-10T14:54:23.630Z,1.00
2024-02-10T14:56:52.241Z,1.00
2024-02-10T14:59:22.735Z,1.27
2024-02-10T15:01:51.505Z,1.75
2024-02-10T15:04:20.092Z,1.15
2024-02-10T15:06:50.077Z,1.98
2024-02-10T15:09:20.022Z,1.27
2024-02-10T15:11:48.593Z,2.13
2024-02-10T15:14:19.329Z,1.95
2024-02-10T15:16:47.972Z,0.73
2024-02-10T15:19:16.597Z,1.27
2024-02-10T15:21:45.120Z,1.33
2024-02-10T15:24:14.849Z,0.82
2024-02-10T15:26:43.739Z,2.60
2024-02-10T15:29:13.499Z,1.67
2024-02-10T15:31:42.230Z,1.45
2024-02-10T15:34:10.838Z,1.50
2024-02-10T15:36:40.765Z,1.77
2024-02-10T15:39:09.323Z,1.55
2024-02-10T15:41:40.094Z,2.53
2024-02-10T15:44:10.436Z,1.13
2024-02-10T15:46:43.137Z,1.50
2024-02-10T15:49:12.458Z,1.00
2024-02-10T15:51:41.610Z,2.67
2024-02-10T15:54:11.876Z,1.33
2024-02-10T15:56:45.894Z,1.30
2024-02-10T16:01:47.418Z,1.42
2024-02-10T16:04:16.123Z,1.75
2024-02-10T16:06:49.277Z,1.83
2024-02-10T16:09:19.669Z,1.95
2024-02-10T16:11:48.236Z,2.42
2024-02-10T16:14:16.939Z,1.90
2024-02-10T16:16:45.726Z,1.42
2024-02-10T16:19:14.939Z,1.95
2024-02-10T16:21:44.957Z,1.63
2024-02-10T16:24:13.561Z,1.65
2024-02-10T16:26:43.073Z,2.50
2024-02-10T16:29:14.106Z,2.25
2024-02-10T16:31:52.748Z,2.33
2024-02-10T16:34:21.464Z,1.63
2024-02-10T16:36:50.108Z,1.75
2024-02-10T16:39:18.735Z,2.38
2024-02-10T16:41:47.339Z,2.42
2024-02-10T16:44:15.944Z,3.40
2024-02-10T16:46:49.434Z,2.03
2024-02-10T16:49:22.986Z,1.20
2024-02-10T16:51:52.626Z,2.08
2024-02-10T16:54:21.172Z,2.60
2024-02-10T16:56:49.955Z,3.00
2024-02-10T16:59:18.880Z,2.92
2024-02-10T17:01:47.549Z,2.03
2024-02-10T17:04:16.498Z,2.85
2024-02-10T17:06:45.375Z,2.38
2024-02-10T17:09:16.368Z,2.47
2024-02-10T17:11:45.009Z,2.55
2024-02-10T17:14:13.679Z,2.92
2024-02-10T17:16:42.360Z,2.42
2024-02-10T17:19:13.138Z,2.80
2024-02-10T17:21:43.561Z,2.78
2024-02-10T17:24:12.154Z,2.35
2024-02-10T17:26:40.670Z,4.00
2024-02-10T17:29:12.940Z,4.10
2024-02-10T17:31:41.858Z,3.15
2024-02-10T17:34:10.603Z,3.20
2024-02-10T17:36:39.572Z,2.75
2024-02-10T17:39:08.770Z,3.20
2024-02-10T17:41:39.628Z,3.78
2024-02-10T17:44:08.389Z,3.15
2024-02-10T17:46:37.173Z,3.20
2024-02-10T17:49:07.289Z,2.15
2024-02-10T17:51:35.269Z,2.65
2024-02-10T17:54:04.001Z,2.97
2024-02-10T17:56:34.647Z,2.33
2024-02-10T17:59:05.120Z,2.55
2024-02-10T18:01:35.212Z,2.22
2024-02-10T18:04:03.936Z,2.85
2024-02-10T18:06:33.344Z,2.95
2024-02-10T18:09:02.113Z,2.45
2024-02-10T18:11:30.659Z,2.75
2024-02-10T18:13:59.274Z,2.72
2024-02-10T18:16:29.583Z,1.98
2024-02-10T18:18:58.175Z,2.35
2024-02-10T18:21:26.998Z,2.80
2024-02-10T18:23:55.693Z,2.35
2024-02-10T18:26:25.720Z,2.28
2024-02-10T18:28:54.511Z,2.28
2024-02-10T18:31:23.275Z,2.10
2024-02-10T18:33:52.092Z,2.30
2024-02-10T18:36:20.744Z,1.70
2024-02-10T18:38:49.882Z,2.10
2024-02-10T18:41:19.636Z,1.90
2024-02-10T18:43:49.797Z,1.90
2024-02-10T18:46:18.550Z,1.80
2024-02-10T18:48:50.256Z,1.90
2024-02-10T18:51:22.993Z,1.95
2024-02-10T18:53:51.668Z,2.13
2024-02-10T18:56:26.627Z,1.80
2024-02-10T18:58:57.104Z,2.22
2024-02-10T19:01:28.161Z,2.25
2024-02-10T19:03:58.606Z,1.85
2024-02-10T19:06:27.583Z,2.13
2024-02-10T19:08:57.119Z,2.17
2024-02-10T19:11:25.661Z,2.13
2024-02-10T19:13:58.605Z,2.05
2024-02-10T19:16:30.541Z,1.80
2024-02-10T19:18:59.824Z,1.90
2024-02-10T19:21:28.749Z,2.83
2024-02-10T19:23:57.326Z,2.03
2024-02-10T19:26:25.976Z,1.58
2024-02-10T19:28:54.614Z,2.33
2024-02-10T19:31:23.955Z,2.25
2024-02-10T19:33:54.201Z,2.05
2024-02-10T19:36:23.606Z,1.80
2024-02-10T19:38:52.082Z,2.33
2024-02-10T19:41:21.035Z,1.63
2024-02-10T19:43:52.608Z,2.00
2024-02-10T19:46:21.285Z,2.05
2024-02-10T19:48:50.310Z,2.38
2024-02-10T19:51:21.611Z,1.77
2024-02-10T19:53:50.217Z,2.05
2024-02-10T19:56:19.343Z,1.90
2024-02-10T19:58:50.857Z,1.95
2024-02-10T20:01:22.489Z,2.08
2024-02-10T20:03:54.360Z,1.73
2024-02-10T20:06:26.126Z,1.83
2024-02-10T20:08:55.166Z,1.70
2024-02-10T20:11:24.431Z,2.10
2024-02-10T20:13:53.565Z,1.65
2024-02-10T20:16:22.451Z,1.30
2024-02-10T20:18:51.327Z,1.88
2024-02-10T20:21:19.998Z,1.80
2024-02-10T20:23:49.167Z,1.55
2024-02-10T20:26:17.854Z,1.73
2024-02-10T20:28:46.875Z,1.90
2024-02-10T20:31:20.626Z,1.75
2024-02-10T20:33:56.611Z,2.00
2024-02-10T20:36:26.549Z,1.70
2024-02-10T20:38:55.827Z,2.08
2024-02-10T20:41:25.414Z,1.90
2024-02-10T20:43:54.108Z,1.52
2024-02-10T20:46:23.705Z,1.85
2024-02-10T20:48:52.801Z,1.73
2024-02-10T20:51:21.434Z,2.00
2024-02-10T20:53:49.939Z,1.90
2024-02-10T20:56:18.534Z,1.92
2024-02-10T20:58:47.070Z,1.77
2024-02-10T21:01:15.872Z,1.98
2024-02-10T21:03:47.415Z,2.47
2024-02-10T21:06:16.053Z,2.67
2024-02-10T21:08:47.412Z,2.22
2024-02-10T21:11:16.631Z,1.83
2024-02-10T21:13:45.228Z,2.22
2024-02-10T21:16:13.802Z,1.70
2024-02-10T21:18:42.460Z,2.35
2024-02-10T21:21:11.219Z,1.92
2024-02-10T21:23:40.242Z,1.50
2024-02-10T21:26:08.903Z,1.98
2024-02-10T21:28:38.103Z,1.90
2024-02-10T21:31:07.197Z,1.70
2024-02-10T21:33:35.979Z,1.65
2024-02-10T21:36:06.430Z,1.70
2024-02-10T21:38:38.556Z,1.80
2024-02-10T21:41:07.592Z,1.65
2024-02-10T21:43:37.394Z,1.58
2024-02-10T21:46:07.382Z,1.80
2024-02-10T21:48:36.227Z,1.63
2024-02-10T21:51:04.881Z,1.92
2024-02-10T21:53:33.442Z,1.58
2024-02-10T21:56:02.014Z,1.80
2024-02-10T21:58:30.655Z,2.00
2024-02-10T22:00:59.427Z,1.60
2024-02-10T22:03:28.775Z,1.92
2024-02-10T22:05:57.473Z,1.70
2024-02-10T22:08:26.614Z,1.95
2024-02-10T22:10:56.081Z,1.65
2024-02-10T22:13:24.591Z,1.77
2024-02-10T22:15:53.183Z,1.60
2024-02-10T22:18:21.847Z,1.80
2024-02-10T22:20:49.900Z,1.75
2024-02-10T22:23:19.213Z,1.92
2024-02-10T22:25:47.962Z,1.77
2024-02-10T22:28:16.774Z,1.77
2024-02-10T22:30:45.449Z,1.80
2024-02-10T22:33:14.122Z,1.55
2024-02-10T22:35:43.007Z,1.70
2024-02-10T22:38:19.601Z,1.38
2024-02-10T22:40:48.318Z,1.90
2024-02-10T22:43:17.834Z,1.50
2024-02-10T22:45:47.382Z,2.08
2024-02-10T22:48:15.636Z,1.50
2024-02-10T22:50:48.532Z,1.60
2024-02-10T22:53:17.233Z,1.40
2024-02-10T22:55:46.076Z,1.65
2024-02-10T22:58:18.359Z,1.40
2024-02-10T23:00:53.059Z,1.45
2024-02-10T23:03:21.773Z,1.48
2024-02-10T23:05:52.517Z,1.52
2024-02-10T23:08:22.202Z,1.80
2024-02-10T23:10:52.387Z,2.00
2024-02-10T23:13:27.948Z,2.10
2024-02-10T23:15:57.298Z,1.95
2024-02-10T23:18:28.423Z,1.85
2024-02-10T23:20:57.331Z,1.63
2024-02-10T23:23:29.754Z,1.63
2024-02-10T23:25:58.984Z,2.03
2024-02-10T23:28:27.701Z,1.60
2024-02-10T23:31:02.402Z,1.77
2024-02-10T23:33:34.527Z,1.63
2024-02-10T23:36:21.612Z,1.52
2024-02-10T23:39:00.989Z,1.70
2024-02-10T23:41:32.893Z,1.75
2024-02-10T23:44:01.518Z,1.77
2024-02-10T23:46:32.568Z,1.75
2024-02-10T23:49:01.514Z,1.33
2024-02-10T23:51:32.349Z,2.20
2024-02-10T23:54:00.878Z,1.60
2024-02-10T23:56:30.275Z,1.80
2024-02-10T23:58:59.637Z,1.88
